sensor_id;sensor_type;location;lat;lon;timestamp;pressure;altitude;pressure_sealevel;temperature;humidity
75852;BME280;64500;52.632;20.656;2023-06-22T00:06:20;100464.48;;;17.40;82.90
75852;BME280;64500;52.632;20.656;2023-06-22T00:08:56;100465.79;;;17.35;83.04
75852;BME280;64500;52.632;20.656;2023-06-22T00:11:37;100469.04;;;17.28;83.13
75852;BME280;64500;52.632;20.656;2023-06-22T00:14:05;100462.08;;;17.21;83.30
75852;BME280;64500;52.632;20.656;2023-06-22T00:16:32;100459.33;;;17.15;83.28
75852;BME280;64500;52.632;20.656;2023-06-22T00:19:00;100454.27;;;17.10;83.36
75852;BME280;64500;52.632;20.656;2023-06-22T00:21:28;100451.78;;;17.05;83.37
75852;BME280;64500;52.632;20.656;2023-06-22T00:23:55;100449.86;;;17.00;83.45
75852;BME280;64500;52.632;20.656;2023-06-22T00:26:23;100452.69;;;16.97;83.63
75852;BME280;64500;52.632;20.656;2023-06-22T00:28:51;100448.11;;;16.93;83.52
75852;BME280;64500;52.632;20.656;2023-06-22T00:31:18;100450.30;;;16.88;83.53
75852;BME280;64500;52.632;20.656;2023-06-22T00:33:54;100442.79;;;16.85;83.81
75852;BME280;64500;52.632;20.656;2023-06-22T00:36:21;100439.54;;;16.82;84.03
75852;BME280;64500;52.632;20.656;2023-06-22T00:38:51;100443.27;;;16.82;84.35
75852;BME280;64500;52.632;20.656;2023-06-22T00:41:18;100444.07;;;16.80;84.33
75852;BME280;64500;52.632;20.656;2023-06-22T00:43:45;100447.13;;;16.76;84.34
75852;BME280;64500;52.632;20.656;2023-06-22T00:46:13;100450.77;;;16.74;84.34
75852;BME280;64500;52.632;20.656;2023-06-22T00:48:39;100446.53;;;16.70;84.23
75852;BME280;64500;52.632;20.656;2023-06-22T00:51:08;100445.27;;;16.67;84.23
75852;BME280;64500;52.632;20.656;2023-06-22T00:53:36;100451.48;;;16.63;84.31
75852;BME280;64500;52.632;20.656;2023-06-22T00:56:04;100449.55;;;16.58;84.24
75852;BME280;64500;52.632;20.656;2023-06-22T00:58:32;100446.48;;;16.55;84.41
75852;BME280;64500;52.632;20.656;2023-06-22T01:03:46;100431.80;;;16.53;84.76
75852;BME280;64500;52.632;20.656;2023-06-22T01:06:26;100425.11;;;16.51;84.95
75852;BME280;64500;52.632;20.656;2023-06-22T01:09:06;100419.31;;;16.49;84.95
75852;BME280;64500;52.632;20.656;2023-06-22T01:14:29;100425.33;;;16.43;84.99
75852;BME280;64500;52.632;20.656;2023-06-22T01:17:08;100427.77;;;16.40;85.05
75852;BME280;64500;52.632;20.656;2023-06-22T01:19:49;100427.38;;;16.41;85.37
75852;BME280;64500;52.632;20.656;2023-06-22T01:22:25;100425.14;;;16.39;85.22
75852;BME280;64500;52.632;20.656;2023-06-22T01:27:34;100441.59;;;16.35;85.43
75852;BME280;64500;52.632;20.656;2023-06-22T01:30:22;100442.55;;;16.30;85.73
75852;BME280;64500;52.632;20.656;2023-06-22T01:33:04;100437.81;;;16.28;86.02
75852;BME280;64500;52.632;20.656;2023-06-22T01:35:31;100434.77;;;16.28;86.05
75852;BME280;64500;52.632;20.656;2023-06-22T01:38:19;100436.48;;;16.33;86.56
75852;BME280;64500;52.632;20.656;2023-06-22T01:40:49;100443.48;;;16.40;86.92
75852;BME280;64500;52.632;20.656;2023-06-22T01:43:26;100444.80;;;16.39;86.50
75852;BME280;64500;52.632;20.656;2023-06-22T01:46:17;100444.02;;;16.37;86.65
75852;BME280;64500;52.632;20.656;2023-06-22T01:48:46;100441.33;;;16.40;86.92
75852;BME280;64500;52.632;20.656;2023-06-22T01:51:22;100445.30;;;16.39;86.81
75852;BME280;64500;52.632;20.656;2023-06-22T01:53:49;100449.81;;;16.35;86.56
75852;BME280;64500;52.632;20.656;2023-06-22T02:01:42;100453.77;;;16.30;87.10
75852;BME280;64500;52.632;20.656;2023-06-22T02:04:16;100456.14;;;16.29;87.09
75852;BME280;64500;52.632;20.656;2023-06-22T02:06:46;100454.27;;;16.31;87.33
75852;BME280;64500;52.632;20.656;2023-06-22T02:09:16;100462.40;;;16.29;87.07
75852;BME280;64500;52.632;20.656;2023-06-22T02:11:48;100467.23;;;16.24;87.06
75852;BME280;64500;52.632;20.656;2023-06-22T02:14:23;100470.97;;;16.21;87.22
75852;BME280;64500;52.632;20.656;2023-06-22T02:16:53;100477.52;;;16.26;87.95
75852;BME280;64500;52.632;20.656;2023-06-22T02:19:23;100483.76;;;16.30;88.40
75852;BME280;64500;52.632;20.656;2023-06-22T02:22:01;100487.70;;;16.37;89.13
75852;BME280;64500;52.632;20.656;2023-06-22T02:24:28;100493.51;;;16.54;90.03
75852;BME280;64500;52.632;20.656;2023-06-22T02:26:58;100500.03;;;16.75;90.49
75852;BME280;64500;52.632;20.656;2023-06-22T02:29:25;100505.38;;;16.90;90.95
75852;BME280;64500;52.632;20.656;2023-06-22T02:32:06;100511.98;;;17.04;91.72
75852;BME280;64500;52.632;20.656;2023-06-22T02:34:53;100516.19;;;17.14;91.39
75852;BME280;64500;52.632;20.656;2023-06-22T02:37:40;100518.39;;;17.23;91.21
75852;BME280;64500;52.632;20.656;2023-06-22T02:40:08;100522.31;;;17.27;90.99
75852;BME280;64500;52.632;20.656;2023-06-22T02:42:45;100525.73;;;17.33;90.93
75852;BME280;64500;52.632;20.656;2023-06-22T02:45:15;100524.12;;;17.37;90.92
75852;BME280;64500;52.632;20.656;2023-06-22T02:47:44;100520.30;;;17.42;91.23
75852;BME280;64500;52.632;20.656;2023-06-22T02:50:14;100519.79;;;17.45;91.02
75852;BME280;64500;52.632;20.656;2023-06-22T02:52:41;100518.16;;;17.48;90.93
75852;BME280;64500;52.632;20.656;2023-06-22T02:55:11;100518.12;;;17.54;91.07
75852;BME280;64500;52.632;20.656;2023-06-22T02:57:47;100514.84;;;17.58;91.05
75852;BME280;64500;52.632;20.656;2023-06-22T03:00:21;100517.86;;;17.62;91.21
75852;BME280;64500;52.632;20.656;2023-06-22T03:03:00;100519.52;;;17.65;91.32
75852;BME280;64500;52.632;20.656;2023-06-22T03:05:38;100520.66;;;17.67;91.32
75852;BME280;64500;52.632;20.656;2023-06-22T03:08:08;100518.45;;;17.71;91.50
75852;BME280;64500;52.632;20.656;2023-06-22T03:10:44;100521.08;;;17.76;91.34
75852;BME280;64500;52.632;20.656;2023-06-22T03:13:38;100528.30;;;17.82;91.49
75852;BME280;64500;52.632;20.656;2023-06-22T03:16:13;100525.51;;;17.88;91.61
75852;BME280;64500;52.632;20.656;2023-06-22T03:21:22;100527.48;;;18.04;91.90
75852;BME280;64500;52.632;20.656;2023-06-22T03:23:52;100528.72;;;18.18;92.10
75852;BME280;64500;52.632;20.656;2023-06-22T03:26:38;100532.38;;;18.33;92.33
75852;BME280;64500;52.632;20.656;2023-06-22T03:29:14;100530.20;;;18.50;92.29
75852;BME280;64500;52.632;20.656;2023-06-22T03:31:42;100529.50;;;18.67;92.13
75852;BME280;64500;52.632;20.656;2023-06-22T03:34:09;100531.81;;;18.80;91.58
75852;BME280;64500;52.632;20.656;2023-06-22T03:36:36;100533.42;;;18.96;91.56
75852;BME280;64500;52.632;20.656;2023-06-22T03:41:47;100544.78;;;19.20;90.98
75852;BME280;64500;52.632;20.656;2023-06-22T03:44:16;100547.58;;;19.24;90.60
75852;BME280;64500;52.632;20.656;2023-06-22T03:46:43;100548.95;;;19.35;90.92
75852;BME280;64500;52.632;20.656;2023-06-22T03:49:10;100552.30;;;19.51;91.13
75852;BME280;64500;52.632;20.656;2023-06-22T03:52:01;100553.58;;;19.73;90.79
75852;BME280;64500;52.632;20.656;2023-06-22T03:54:31;100557.14;;;20.00;90.32
75852;BME280;64500;52.632;20.656;2023-06-22T03:57:06;100558.23;;;20.20;89.71
75852;BME280;64500;52.632;20.656;2023-06-22T03:59:33;100563.42;;;20.32;88.80
75852;BME280;64500;52.632;20.656;2023-06-22T04:02:06;100565.33;;;20.33;88.28
75852;BME280;64500;52.632;20.656;2023-06-22T04:04:41;100568.56;;;20.39;87.97
75852;BME280;64500;52.632;20.656;2023-06-22T04:07:08;100566.36;;;20.40;87.54
75852;BME280;64500;52.632;20.656;2023-06-22T04:09:38;100567.05;;;20.45;87.70
75852;BME280;64500;52.632;20.656;2023-06-22T04:12:11;100569.38;;;20.49;87.08
75852;BME280;64500;52.632;20.656;2023-06-22T04:14:38;100571.13;;;20.49;86.72
75852;BME280;64500;52.632;20.656;2023-06-22T04:17:05;100576.88;;;20.49;86.47
75852;BME280;64500;52.632;20.656;2023-06-22T04:19:32;100577.23;;;20.50;86.47
75852;BME280;64500;52.632;20.656;2023-06-22T04:22:02;100579.66;;;20.57;86.27
75852;BME280;64500;52.632;20.656;2023-06-22T04:24:32;100577.58;;;20.67;86.26
75852;BME280;64500;52.632;20.656;2023-06-22T04:30:23;100577.81;;;21.50;84.82
75852;BME280;64500;52.632;20.656;2023-06-22T04:32:53;100576.34;;;21.93;83.87
75852;BME280;64500;52.632;20.656;2023-06-22T04:35:26;100574.86;;;22.38;82.99
75852;BME280;64500;52.632;20.656;2023-06-22T04:37:59;100576.66;;;22.84;81.76
75852;BME280;64500;52.632;20.656;2023-06-22T04:40:49;100575.05;;;23.24;79.65
75852;BME280;64500;52.632;20.656;2023-06-22T04:43:49;100575.47;;;23.54;78.59
75852;BME280;64500;52.632;20.656;2023-06-22T04:46:41;100575.25;;;24.04;77.82
75852;BME280;64500;52.632;20.656;2023-06-22T04:49:11;100579.89;;;24.49;75.63
75852;BME280;64500;52.632;20.656;2023-06-22T04:51:44;100582.06;;;24.72;73.89
75852;BME280;64500;52.632;20.656;2023-06-22T04:54:21;100579.69;;;24.84;72.51
75852;BME280;64500;52.632;20.656;2023-06-22T04:56:59;100578.05;;;24.90;71.17
75852;BME280;64500;52.632;20.656;2023-06-22T04:59:48;100577.42;;;24.87;69.85
75852;BME280;64500;52.632;20.656;2023-06-22T05:02:18;100575.80;;;24.96;70.01
75852;BME280;64500;52.632;20.656;2023-06-22T05:04:52;100582.67;;;25.21;69.15
75852;BME280;64500;52.632;20.656;2023-06-22T05:07:29;100580.80;;;25.39;68.64
75852;BME280;64500;52.632;20.656;2023-06-22T05:10:09;100583.44;;;25.63;67.38
75852;BME280;64500;52.632;20.656;2023-06-22T05:12:46;100587.30;;;25.87;65.64
75852;BME280;64500;52.632;20.656;2023-06-22T05:18:23;100592.47;;;26.05;64.40
75852;BME280;64500;52.632;20.656;2023-06-22T05:21:12;100592.16;;;26.35;63.82
75852;BME280;64500;52.632;20.656;2023-06-22T05:23:56;100592.73;;;26.58;62.43
75852;BME280;64500;52.632;20.656;2023-06-22T05:26:26;100599.52;;;26.88;62.62
75852;BME280;64500;52.632;20.656;2023-06-22T05:29:16;100600.10;;;27.22;61.76
75852;BME280;64500;52.632;20.656;2023-06-22T05:32:08;100598.92;;;27.39;60.04
75852;BME280;64500;52.632;20.656;2023-06-22T05:34:41;100596.81;;;27.56;60.30
75852;BME280;64500;52.632;20.656;2023-06-22T05:37:27;100596.95;;;27.84;58.96
75852;BME280;64500;52.632;20.656;2023-06-22T05:40:01;100605.29;;;27.90;57.39
75852;BME280;64500;52.632;20.656;2023-06-22T05:42:39;100611.25;;;27.85;57.36
75852;BME280;64500;52.632;20.656;2023-06-22T05:45:12;100611.39;;;27.93;57.93
75852;BME280;64500;52.632;20.656;2023-06-22T05:47:44;100619.84;;;28.33;57.13
75852;BME280;64500;52.632;20.656;2023-06-22T05:50:12;100619.48;;;28.32;54.69
75852;BME280;64500;52.632;20.656;2023-06-22T05:52:59;100614.31;;;28.27;54.64
75852;BME280;64500;52.632;20.656;2023-06-22T05:58:19;100611.95;;;28.39;53.84
75852;BME280;64500;52.632;20.656;2023-06-22T06:00:52;100613.23;;;28.43;53.30
75852;BME280;64500;52.632;20.656;2023-06-22T06:03:32;100613.30;;;28.46;52.83
75852;BME280;64500;52.632;20.656;2023-06-22T06:06:02;100615.49;;;28.46;53.09
75852;BME280;64500;52.632;20.656;2023-06-22T06:09:09;100614.85;;;28.45;53.06
75852;BME280;64500;52.632;20.656;2023-06-22T06:11:59;100619.48;;;28.40;52.07
75852;BME280;64500;52.632;20.656;2023-06-22T06:14:35;100626.09;;;28.12;51.55
75852;BME280;64500;52.632;20.656;2023-06-22T06:17:14;100626.21;;;27.86;51.79
75852;BME280;64500;52.632;20.656;2023-06-22T06:20:01;100615.09;;;27.58;52.67
75852;BME280;64500;52.632;20.656;2023-06-22T06:22:33;100616.67;;;27.38;52.51
75852;BME280;64500;52.632;20.656;2023-06-22T06:27:52;100616.27;;;26.15;53.80
75852;BME280;64500;52.632;20.656;2023-06-22T06:30:42;100612.93;;;25.70;54.73
75852;BME280;64500;52.632;20.656;2023-06-22T06:33:09;100620.11;;;25.36;54.88
75852;BME280;64500;52.632;20.656;2023-06-22T06:35:38;100611.73;;;25.01;54.93
75852;BME280;64500;52.632;20.656;2023-06-22T06:38:16;100617.11;;;24.79;55.75
75852;BME280;64500;52.632;20.656;2023-06-22T06:40:46;100612.83;;;24.56;56.28
75852;BME280;64500;52.632;20.656;2023-06-22T06:43:21;100617.40;;;24.43;57.05
75852;BME280;64500;52.632;20.656;2023-06-22T06:45:57;100611.94;;;24.28;57.04
75852;BME280;64500;52.632;20.656;2023-06-22T06:48:24;100615.98;;;24.15;57.52
75852;BME280;64500;52.632;20.656;2023-06-22T06:50:54;100614.86;;;24.03;57.58
75852;BME280;64500;52.632;20.656;2023-06-22T06:53:24;100617.66;;;23.96;57.87
75852;BME280;64500;52.632;20.656;2023-06-22T06:55:56;100619.45;;;23.98;58.50
75852;BME280;64500;52.632;20.656;2023-06-22T06:58:29;100627.54;;;24.08;58.81
75852;BME280;64500;52.632;20.656;2023-06-22T07:01:02;100631.18;;;24.09;58.53
75852;BME280;64500;52.632;20.656;2023-06-22T07:03:42;100622.67;;;24.07;58.40
75852;BME280;64500;52.632;20.656;2023-06-22T07:06:13;100620.99;;;24.08;58.32
75852;BME280;64500;52.632;20.656;2023-06-22T07:08:40;100628.15;;;24.21;58.88
75852;BME280;64500;52.632;20.656;2023-06-22T07:11:08;100627.93;;;24.31;58.16
75852;BME280;64500;52.632;20.656;2023-06-22T07:13:53;100628.40;;;24.34;58.14
75852;BME280;64500;52.632;20.656;2023-06-22T07:16:23;100628.54;;;24.39;58.06
75852;BME280;64500;52.632;20.656;2023-06-22T07:18:52;100628.38;;;24.56;58.73
75852;BME280;64500;52.632;20.656;2023-06-22T07:21:24;100636.91;;;24.71;57.90
75852;BME280;64500;52.632;20.656;2023-06-22T07:24:12;100634.17;;;24.74;57.57
75852;BME280;64500;52.632;20.656;2023-06-22T07:26:41;100630.27;;;24.68;57.49
75852;BME280;64500;52.632;20.656;2023-06-22T07:29:17;100632.20;;;24.76;57.46
75852;BME280;64500;52.632;20.656;2023-06-22T07:31:56;100635.38;;;24.81;57.90
75852;BME280;64500;52.632;20.656;2023-06-22T07:34:31;100634.09;;;24.97;57.06
75852;BME280;64500;52.632;20.656;2023-06-22T07:37:02;100638.44;;;25.02;56.62
75852;BME280;64500;52.632;20.656;2023-06-22T07:39:32;100646.52;;;25.09;57.13
75852;BME280;64500;52.632;20.656;2023-06-22T07:42:00;100642.28;;;25.17;57.13
75852;BME280;64500;52.632;20.656;2023-06-22T07:44:37;100641.10;;;25.05;56.26
75852;BME280;64500;52.632;20.656;2023-06-22T07:47:07;100643.21;;;24.98;56.60
75852;BME280;64500;52.632;20.656;2023-06-22T07:49:34;100649.38;;;24.98;56.75
75852;BME280;64500;52.632;20.656;2023-06-22T07:52:02;100640.38;;;24.93;56.39
75852;BME280;64500;52.632;20.656;2023-06-22T07:54:33;100633.59;;;24.87;56.91
75852;BME280;64500;52.632;20.656;2023-06-22T07:57:02;100628.27;;;24.93;56.60
75852;BME280;64500;52.632;20.656;2023-06-22T07:59:32;100624.12;;;24.93;56.32
75852;BME280;64500;52.632;20.656;2023-06-22T08:04:41;100636.44;;;24.84;56.17
75852;BME280;64500;52.632;20.656;2023-06-22T08:07:18;100626.36;;;24.90;56.67
75852;BME280;64500;52.632;20.656;2023-06-22T08:12:27;100630.85;;;25.11;56.51
75852;BME280;64500;52.632;20.656;2023-06-22T08:14:54;100632.96;;;25.16;56.15
75852;BME280;64500;52.632;20.656;2023-06-22T08:17:49;100630.05;;;25.25;56.42
75852;BME280;64500;52.632;20.656;2023-06-22T08:20:22;100633.92;;;25.42;56.31
75852;BME280;64500;52.632;20.656;2023-06-22T08:22:55;100628.13;;;25.53;55.94
75852;BME280;64500;52.632;20.656;2023-06-22T08:25:34;100636.29;;;25.59;55.18
75852;BME280;64500;52.632;20.656;2023-06-22T08:28:24;100651.44;;;25.53;54.53
75852;BME280;64500;52.632;20.656;2023-06-22T08:30:57;100650.08;;;25.50;54.57
75852;BME280;64500;52.632;20.656;2023-06-22T08:36:28;100664.02;;;25.80;53.09
75852;BME280;64500;52.632;20.656;2023-06-22T08:38:59;100659.89;;;25.84;53.12
75852;BME280;64500;52.632;20.656;2023-06-22T08:41:29;100660.85;;;25.95;53.52
75852;BME280;64500;52.632;20.656;2023-06-22T08:44:00;100663.59;;;26.12;53.05
75852;BME280;64500;52.632;20.656;2023-06-22T08:46:27;100666.71;;;26.11;52.43
75852;BME280;64500;52.632;20.656;2023-06-22T08:49:01;100658.59;;;26.09;52.60
75852;BME280;64500;52.632;20.656;2023-06-22T08:51:29;100658.60;;;26.28;52.47
75852;BME280;64500;52.632;20.656;2023-06-22T08:53:56;100659.52;;;26.15;52.20
75852;BME280;64500;52.632;20.656;2023-06-22T08:56:33;100657.88;;;26.17;53.03
75852;BME280;64500;52.632;20.656;2023-06-22T09:01:54;100666.75;;;26.49;52.32
75852;BME280;64500;52.632;20.656;2023-06-22T09:04:24;100667.96;;;26.45;51.81
75852;BME280;64500;52.632;20.656;2023-06-22T09:06:56;100667.83;;;26.45;51.65
75852;BME280;64500;52.632;20.656;2023-06-22T09:09:29;100666.08;;;26.44;51.35
75852;BME280;64500;52.632;20.656;2023-06-22T09:12:02;100656.11;;;26.42;51.14
75852;BME280;64500;52.632;20.656;2023-06-22T09:14:38;100658.27;;;26.32;49.48
75852;BME280;64500;52.632;20.656;2023-06-22T09:17:05;100648.66;;;26.27;50.40
75852;BME280;64500;52.632;20.656;2023-06-22T09:19:32;100649.39;;;26.51;51.42
75852;BME280;64500;52.632;20.656;2023-06-22T09:21:59;100648.86;;;26.75;50.80
75852;BME280;64500;52.632;20.656;2023-06-22T09:24:27;100645.90;;;26.70;49.46
75852;BME280;64500;52.632;20.656;2023-06-22T09:26:57;100651.86;;;26.58;49.15
75852;BME280;64500;52.632;20.656;2023-06-22T09:29:36;100651.57;;;26.63;49.52
75852;BME280;64500;52.632;20.656;2023-06-22T09:32:13;100647.23;;;26.71;49.03
75852;BME280;64500;52.632;20.656;2023-06-22T09:34:49;100641.77;;;26.82;48.33
75852;BME280;64500;52.632;20.656;2023-06-22T09:40:30;100640.96;;;27.26;48.28
75852;BME280;64500;52.632;20.656;2023-06-22T09:43:06;100642.79;;;27.42;49.16
75852;BME280;64500;52.632;20.656;2023-06-22T09:45:33;100642.27;;;27.45;48.15
75852;BME280;64500;52.632;20.656;2023-06-22T09:48:03;100644.05;;;27.57;47.69
75852;BME280;64500;52.632;20.656;2023-06-22T09:50:41;100635.26;;;27.58;47.01
75852;BME280;64500;52.632;20.656;2023-06-22T09:53:08;100640.07;;;27.57;47.23
75852;BME280;64500;52.632;20.656;2023-06-22T09:55:46;100637.25;;;27.51;47.55
75852;BME280;64500;52.632;20.656;2023-06-22T10:01:22;100643.34;;;27.82;47.75
75852;BME280;64500;52.632;20.656;2023-06-22T10:03:53;100645.94;;;27.83;47.26
75852;BME280;64500;52.632;20.656;2023-06-22T10:06:44;100643.02;;;27.81;46.87
75852;BME280;64500;52.632;20.656;2023-06-22T10:09:34;100640.57;;;28.03;46.62
75852;BME280;64500;52.632;20.656;2023-06-22T10:12:14;100635.17;;;27.99;44.39
75852;BME280;64500;52.632;20.656;2023-06-22T10:14:53;100637.00;;;27.93;44.81
75852;BME280;64500;52.632;20.656;2023-06-22T10:17:28;100640.00;;;27.90;45.36
75852;BME280;64500;52.632;20.656;2023-06-22T10:19:58;100630.93;;;27.84;45.72
75852;BME280;64500;52.632;20.656;2023-06-22T10:22:36;100631.77;;;27.95;46.35
75852;BME280;64500;52.632;20.656;2023-06-22T10:28:00;100626.13;;;27.85;45.34
75852;BME280;64500;52.632;20.656;2023-06-22T10:30:39;100627.00;;;27.91;45.47
75852;BME280;64500;52.632;20.656;2023-06-22T10:33:14;100628.08;;;28.22;45.91
75852;BME280;64500;52.632;20.656;2023-06-22T10:36:04;100633.80;;;28.56;44.90
75852;BME280;64500;52.632;20.656;2023-06-22T10:39:00;100621.58;;;28.64;44.54
75852;BME280;64500;52.632;20.656;2023-06-22T10:41:51;100632.09;;;28.66;44.72
75852;BME280;64500;52.632;20.656;2023-06-22T10:47:13;100635.34;;;28.72;44.83
75852;BME280;64500;52.632;20.656;2023-06-22T10:50:00;100637.52;;;28.41;45.45
75852;BME280;64500;52.632;20.656;2023-06-22T10:52:33;100629.00;;;28.30;45.61
75852;BME280;64500;52.632;20.656;2023-06-22T10:57:47;100630.34;;;28.67;44.70
75852;BME280;64500;52.632;20.656;2023-06-22T11:00:15;100631.30;;;28.80;45.30
75852;BME280;64500;52.632;20.656;2023-06-22T11:02:47;100636.75;;;28.80;43.98
75852;BME280;64500;52.632;20.656;2023-06-22T11:05:14;100638.32;;;28.51;42.07
75852;BME280;64500;52.632;20.656;2023-06-22T11:07:42;100635.77;;;28.20;43.07
75852;BME280;64500;52.632;20.656;2023-06-22T11:10:11;100631.50;;;28.10;43.91
75852;BME280;64500;52.632;20.656;2023-06-22T11:12:46;100629.27;;;28.08;43.56
75852;BME280;64500;52.632;20.656;2023-06-22T11:15:27;100627.40;;;28.06;44.78
75852;BME280;64500;52.632;20.656;2023-06-22T11:17:56;100629.89;;;28.01;45.84
75852;BME280;64500;52.632;20.656;2023-06-22T11:20:28;100634.63;;;27.97;46.79
75852;BME280;64500;52.632;20.656;2023-06-22T11:23:01;100632.48;;;27.93;46.68
75852;BME280;64500;52.632;20.656;2023-06-22T11:25:41;100638.55;;;27.74;46.97
75852;BME280;64500;52.632;20.656;2023-06-22T11:28:19;100636.77;;;27.52;47.42
75852;BME280;64500;52.632;20.656;2023-06-22T11:30:49;100637.60;;;27.45;48.15
75852;BME280;64500;52.632;20.656;2023-06-22T11:33:16;100644.91;;;27.52;48.48
75852;BME280;64500;52.632;20.656;2023-06-22T11:36:01;100646.43;;;27.36;48.46
75852;BME280;64500;52.632;20.656;2023-06-22T11:38:34;100638.44;;;27.01;48.87
75852;BME280;64500;52.632;20.656;2023-06-22T11:41:10;100632.10;;;26.99;49.55
75852;BME280;64500;52.632;20.656;2023-06-22T11:43:38;100640.15;;;27.23;49.85
75852;BME280;64500;52.632;20.656;2023-06-22T11:46:19;100642.04;;;27.30;48.88
75852;BME280;64500;52.632;20.656;2023-06-22T11:49:06;100633.47;;;27.32;48.40
75852;BME280;64500;52.632;20.656;2023-06-22T11:51:40;100639.92;;;27.39;45.53
75852;BME280;64500;52.632;20.656;2023-06-22T11:54:16;100639.06;;;27.33;45.57
75852;BME280;64500;52.632;20.656;2023-06-22T11:56:59;100642.69;;;27.19;44.50
75852;BME280;64500;52.632;20.656;2023-06-22T11:59:29;100631.76;;;27.13;45.10
75852;BME280;64500;52.632;20.656;2023-06-22T12:02:02;100632.19;;;27.16;45.20
75852;BME280;64500;52.632;20.656;2023-06-22T12:04:47;100640.02;;;27.14;44.80
75852;BME280;64500;52.632;20.656;2023-06-22T12:07:38;100632.60;;;27.15;44.77
75852;BME280;64500;52.632;20.656;2023-06-22T12:10:13;100637.05;;;27.23;45.62
75852;BME280;64500;52.632;20.656;2023-06-22T12:13:06;100628.91;;;27.27;46.19
75852;BME280;64500;52.632;20.656;2023-06-22T12:15:53;100622.99;;;27.34;46.23
75852;BME280;64500;52.632;20.656;2023-06-22T12:18:24;100623.96;;;27.43;45.64
75852;BME280;64500;52.632;20.656;2023-06-22T12:20:52;100623.48;;;27.38;45.39
75852;BME280;64500;52.632;20.656;2023-06-22T12:23:24;100625.17;;;27.34;45.18
75852;BME280;64500;52.632;20.656;2023-06-22T12:25:58;100629.10;;;27.33;45.43
75852;BME280;64500;52.632;20.656;2023-06-22T12:28:27;100622.71;;;27.33;45.60
75852;BME280;64500;52.632;20.656;2023-06-22T12:30:54;100618.53;;;27.37;45.76
75852;BME280;64500;52.632;20.656;2023-06-22T12:33:21;100624.63;;;27.48;45.21
75852;BME280;64500;52.632;20.656;2023-06-22T12:35:57;100623.46;;;27.50;44.50
75852;BME280;64500;52.632;20.656;2023-06-22T12:38:26;100614.91;;;27.67;44.88
75852;BME280;64500;52.632;20.656;2023-06-22T12:40:54;100618.07;;;28.07;45.05
75852;BME280;64500;52.632;20.656;2023-06-22T12:43:21;100619.31;;;28.46;45.04
75852;BME280;64500;52.632;20.656;2023-06-22T12:45:54;100627.06;;;28.75;44.36
75852;BME280;64500;52.632;20.656;2023-06-22T12:48:23;100626.52;;;28.66;43.23
75852;BME280;64500;52.632;20.656;2023-06-22T12:50:51;100625.41;;;28.62;43.32
75852;BME280;64500;52.632;20.656;2023-06-22T12:53:20;100631.70;;;28.50;42.76
75852;BME280;64500;52.632;20.656;2023-06-22T12:55:57;100627.29;;;28.21;42.78
75852;BME280;64500;52.632;20.656;2023-06-22T12:58:25;100624.84;;;28.11;43.44
75852;BME280;64500;52.632;20.656;2023-06-22T13:00:52;100618.33;;;28.16;43.45
75852;BME280;64500;52.632;20.656;2023-06-22T13:03:21;100615.88;;;28.32;43.34
75852;BME280;64500;52.632;20.656;2023-06-22T13:05:49;100607.77;;;28.52;43.39
75852;BME280;64500;52.632;20.656;2023-06-22T13:08:16;100604.83;;;28.81;43.14
75852;BME280;64500;52.632;20.656;2023-06-22T13:10:43;100608.55;;;28.99;41.69
75852;BME280;64500;52.632;20.656;2023-06-22T13:15:57;100608.07;;;28.70;41.40
75852;BME280;64500;52.632;20.656;2023-06-22T13:18:37;100609.38;;;28.30;41.81
75852;BME280;64500;52.632;20.656;2023-06-22T13:21:07;100608.58;;;28.10;42.37
75852;BME280;64500;52.632;20.656;2023-06-22T13:23:43;100606.55;;;28.00;42.58
75852;BME280;64500;52.632;20.656;2023-06-22T13:29:10;100598.80;;;28.01;43.20
75852;BME280;64500;52.632;20.656;2023-06-22T13:34:32;100589.84;;;28.55;43.67
75852;BME280;64500;52.632;20.656;2023-06-22T13:37:28;100595.59;;;28.88;42.73
75852;BME280;64500;52.632;20.656;2023-06-22T13:40:07;100590.59;;;29.15;42.24
75852;BME280;64500;52.632;20.656;2023-06-22T13:42:46;100596.34;;;29.43;41.80
75852;BME280;64500;52.632;20.656;2023-06-22T13:45:16;100586.00;;;29.52;40.92
75852;BME280;64500;52.632;20.656;2023-06-22T13:47:45;100582.59;;;29.68;40.45
75852;BME280;64500;52.632;20.656;2023-06-22T13:50:36;100591.71;;;30.01;40.86
75852;BME280;64500;52.632;20.656;2023-06-22T13:53:13;100593.59;;;30.38;40.63
75852;BME280;64500;52.632;20.656;2023-06-22T13:55:43;100590.58;;;30.48;38.59
75852;BME280;64500;52.632;20.656;2023-06-22T13:58:11;100589.29;;;30.50;39.60
75852;BME280;64500;52.632;20.656;2023-06-22T14:00:48;100588.70;;;30.65;39.71
75852;BME280;64500;52.632;20.656;2023-06-22T14:03:26;100588.80;;;30.74;38.76
75852;BME280;64500;52.632;20.656;2023-06-22T14:11:33;100591.14;;;29.70;36.95
75852;BME280;64500;52.632;20.656;2023-06-22T14:14:08;100593.48;;;29.41;37.60
75852;BME280;64500;52.632;20.656;2023-06-22T14:16:38;100585.73;;;29.40;38.58
75852;BME280;64500;52.632;20.656;2023-06-22T14:19:19;100590.06;;;29.62;39.20
75852;BME280;64500;52.632;20.656;2023-06-22T14:21:46;100589.98;;;29.83;37.95
75852;BME280;64500;52.632;20.656;2023-06-22T14:24:24;100594.30;;;29.73;37.54
75852;BME280;64500;52.632;20.656;2023-06-22T14:27:25;100588.91;;;29.52;37.78
75852;BME280;64500;52.632;20.656;2023-06-22T14:29:59;100592.73;;;29.35;37.63
75852;BME280;64500;52.632;20.656;2023-06-22T14:32:27;100585.17;;;29.29;38.18